sensor_id;sensor_type;location;lat;lon;timestamp;pressure;altitude;pressure_sealevel;temperature;humidity
63088;BME280;49173;43.164;27.786;2023-05-25T00:02:19;100352.84;;;17.26;75.86
63088;BME280;49173;43.164;27.786;2023-05-25T00:04:49;100352.50;;;17.19;75.81
63088;BME280;49173;43.164;27.786;2023-05-25T00:07:15;100354.97;;;17.22;75.43
63088;BME280;49173;43.164;27.786;2023-05-25T00:09:41;100353.00;;;17.24;75.50
63088;BME280;49173;43.164;27.786;2023-05-25T00:12:09;100345.13;;;17.21;75.54
63088;BME280;49173;43.164;27.786;2023-05-25T00:14:35;100350.78;;;17.18;74.97
63088;BME280;49173;43.164;27.786;2023-05-25T00:17:01;100345.63;;;17.15;75.44
63088;BME280;49173;43.164;27.786;2023-05-25T00:19:29;100349.84;;;17.08;76.01
63088;BME280;49173;43.164;27.786;2023-05-25T00:21:58;100343.56;;;17.08;76.56
63088;BME280;49173;43.164;27.786;2023-05-25T00:24:28;100348.47;;;17.02;76.49
63088;BME280;49173;43.164;27.786;2023-05-25T00:26:55;100348.13;;;16.96;76.48
63088;BME280;49173;43.164;27.786;2023-05-25T00:29:21;100346.13;;;16.98;76.13
63088;BME280;49173;43.164;27.786;2023-05-25T00:31:48;100348.97;;;16.96;76.24
63088;BME280;49173;43.164;27.786;2023-05-25T00:34:15;100350.84;;;16.96;75.69
63088;BME280;49173;43.164;27.786;2023-05-25T00:36:41;100343.97;;;16.92;76.01
63088;BME280;49173;43.164;27.786;2023-05-25T00:39:08;100343.97;;;16.92;76.40
63088;BME280;49173;43.164;27.786;2023-05-25T00:41:36;100346.75;;;16.90;76.21
63088;BME280;49173;43.164;27.786;2023-05-25T00:44:07;100343.97;;;16.92;76.48
63088;BME280;49173;43.164;27.786;2023-05-25T00:46:33;100346.03;;;16.88;76.32
63088;BME280;49173;43.164;27.786;2023-05-25T00:49:00;100350.88;;;16.85;76.79
63088;BME280;49173;43.164;27.786;2023-05-25T00:51:26;100354.81;;;16.81;76.80
63088;BME280;49173;43.164;27.786;2023-05-25T00:53:54;100344.44;;;16.74;76.43
63088;BME280;49173;43.164;27.786;2023-05-25T00:56:29;100347.88;;;16.65;76.72
63088;BME280;49173;43.164;27.786;2023-05-25T00:59:02;100345.53;;;16.61;76.99
63088;BME280;49173;43.164;27.786;2023-05-25T01:01:30;100344.94;;;16.57;76.96
63088;BME280;49173;43.164;27.786;2023-05-25T01:03:57;100339.22;;;16.49;76.87
63088;BME280;49173;43.164;27.786;2023-05-25T01:06:25;100340.84;;;16.40;77.00
63088;BME280;49173;43.164;27.786;2023-05-25T01:08:58;100336.91;;;16.33;76.84
63088;BME280;49173;43.164;27.786;2023-05-25T01:11:28;100345.41;;;16.29;76.98
63088;BME280;49173;43.164;27.786;2023-05-25T01:13:57;100340.22;;;16.26;77.12
63088;BME280;49173;43.164;27.786;2023-05-25T01:16:24;100346.38;;;16.28;77.59
63088;BME280;49173;43.164;27.786;2023-05-25T01:18:51;100341.72;;;16.30;78.00
63088;BME280;49173;43.164;27.786;2023-05-25T01:21:23;100348.00;;;16.30;78.08
63088;BME280;49173;43.164;27.786;2023-05-25T01:24:12;100345.63;;;16.26;78.49
63088;BME280;49173;43.164;27.786;2023-05-25T01:29:33;100342.41;;;16.20;77.93
63088;BME280;49173;43.164;27.786;2023-05-25T01:32:01;100342.66;;;16.17;77.72
63088;BME280;49173;43.164;27.786;2023-05-25T01:34:29;100341.28;;;16.12;78.35
63088;BME280;49173;43.164;27.786;2023-05-25T01:36:55;100337.72;;;16.11;78.84
63088;BME280;49173;43.164;27.786;2023-05-25T01:39:22;100340.31;;;16.13;78.89
63088;BME280;49173;43.164;27.786;2023-05-25T01:41:48;100336.00;;;16.10;78.70
63088;BME280;49173;43.164;27.786;2023-05-25T01:44:14;100338.59;;;16.12;78.54
63088;BME280;49173;43.164;27.786;2023-05-25T01:46:40;100330.84;;;16.07;78.24
63088;BME280;49173;43.164;27.786;2023-05-25T01:54:27;100332.66;;;15.96;78.49
63088;BME280;49173;43.164;27.786;2023-05-25T01:56:57;100332.16;;;15.90;78.60
63088;BME280;49173;43.164;27.786;2023-05-25T01:59:26;100332.28;;;15.89;78.68
63088;BME280;49173;43.164;27.786;2023-05-25T02:01:53;100331.41;;;15.88;78.16
63088;BME280;49173;43.164;27.786;2023-05-25T02:04:20;100335.84;;;15.89;78.78
63088;BME280;49173;43.164;27.786;2023-05-25T02:06:50;100333.25;;;15.88;79.41
63088;BME280;49173;43.164;27.786;2023-05-25T02:09:17;100335.84;;;15.89;79.96
63088;BME280;49173;43.164;27.786;2023-05-25T02:11:42;100338.53;;;15.89;80.50
63088;BME280;49173;43.164;27.786;2023-05-25T02:14:08;100340.38;;;15.89;80.44
63088;BME280;49173;43.164;27.786;2023-05-25T02:16:35;100343.97;;;15.89;80.61
63088;BME280;49173;43.164;27.786;2023-05-25T02:19:01;100346.19;;;15.96;81.01
63088;BME280;49173;43.164;27.786;2023-05-25T02:21:27;100348.78;;;15.97;80.93
63088;BME280;49173;43.164;27.786;2023-05-25T02:23:53;100346.19;;;15.96;80.74
63088;BME280;49173;43.164;27.786;2023-05-25T02:26:19;100353.66;;;15.92;80.36
63088;BME280;49173;43.164;27.786;2023-05-25T02:28:45;100354.66;;;15.91;79.96
63088;BME280;49173;43.164;27.786;2023-05-25T02:31:10;100367.34;;;15.90;79.93
63088;BME280;49173;43.164;27.786;2023-05-25T02:33:36;100352.94;;;15.90;79.44
63088;BME280;49173;43.164;27.786;2023-05-25T02:36:03;100360.53;;;15.85;78.99
63088;BME280;49173;43.164;27.786;2023-05-25T02:38:29;100364.47;;;15.81;78.86
63088;BME280;49173;43.164;27.786;2023-05-25T02:40:55;100365.06;;;15.73;78.80
63088;BME280;49173;43.164;27.786;2023-05-25T02:43:21;100365.41;;;15.69;79.00
63088;BME280;49173;43.164;27.786;2023-05-25T02:45:47;100364.03;;;15.63;78.88
63088;BME280;49173;43.164;27.786;2023-05-25T02:48:13;100370.63;;;15.59;79.23
63088;BME280;49173;43.164;27.786;2023-05-25T02:50:38;100371.31;;;15.50;79.50
63088;BME280;49173;43.164;27.786;2023-05-25T02:53:04;100368.84;;;15.47;79.73
63088;BME280;49173;43.164;27.786;2023-05-25T02:55:30;100367.25;;;15.44;79.87
63088;BME280;49173;43.164;27.786;2023-05-25T02:57:56;100377.31;;;15.42;80.09
63088;BME280;49173;43.164;27.786;2023-05-25T03:00:22;100380.66;;;15.46;80.02
63088;BME280;49173;43.164;27.786;2023-05-25T03:02:49;100380.78;;;15.44;80.20
63088;BME280;49173;43.164;27.786;2023-05-25T03:05:16;100377.53;;;15.39;80.58
63088;BME280;49173;43.164;27.786;2023-05-25T03:07:42;100383.94;;;15.38;81.15
63088;BME280;49173;43.164;27.786;2023-05-25T03:10:09;100378.16;;;15.43;81.50
63088;BME280;49173;43.164;27.786;2023-05-25T03:12:35;100389.09;;;15.41;81.45
63088;BME280;49173;43.164;27.786;2023-05-25T03:15:01;100397.00;;;15.44;81.89
63088;BME280;49173;43.164;27.786;2023-05-25T03:17:27;100394.28;;;15.44;82.18
63088;BME280;49173;43.164;27.786;2023-05-25T03:19:52;100394.50;;;15.41;82.33
63088;BME280;49173;43.164;27.786;2023-05-25T03:22:18;100397.75;;;15.46;82.48
63088;BME280;49173;43.164;27.786;2023-05-25T03:24:44;100404.63;;;15.50;82.57
63088;BME280;49173;43.164;27.786;2023-05-25T03:27:10;100393.72;;;15.52;82.51
63088;BME280;49173;43.164;27.786;2023-05-25T03:29:36;100395.56;;;15.51;83.17
63088;BME280;49173;43.164;27.786;2023-05-25T03:32:02;100388.72;;;15.58;83.73
63088;BME280;49173;43.164;27.786;2023-05-25T03:34:28;100393.44;;;15.68;84.01
63088;BME280;49173;43.164;27.786;2023-05-25T03:36:54;100392.75;;;15.77;84.42
63088;BME280;49173;43.164;27.786;2023-05-25T03:39:20;100394.78;;;15.86;84.56
63088;BME280;49173;43.164;27.786;2023-05-25T03:41:47;100398.47;;;15.96;84.64
63088;BME280;49173;43.164;27.786;2023-05-25T03:44:12;100384.00;;;16.08;84.98
63088;BME280;49173;43.164;27.786;2023-05-25T03:46:38;100388.69;;;16.17;84.52
63088;BME280;49173;43.164;27.786;2023-05-25T03:49:04;100390.69;;;16.27;85.33
63088;BME280;49173;43.164;27.786;2023-05-25T03:51:30;100388.75;;;16.40;84.84
63088;BME280;49173;43.164;27.786;2023-05-25T03:53:56;100390.50;;;16.52;84.15
63088;BME280;49173;43.164;27.786;2023-05-25T03:56:22;100390.00;;;16.58;83.56
63088;BME280;49173;43.164;27.786;2023-05-25T03:58:48;100393.81;;;16.67;83.59
63088;BME280;49173;43.164;27.786;2023-05-25T04:01:14;100402.22;;;16.75;83.16
63088;BME280;49173;43.164;27.786;2023-05-25T04:03:41;100402.00;;;16.78;83.32
63088;BME280;49173;43.164;27.786;2023-05-25T04:06:06;100417.00;;;16.82;83.38
63088;BME280;49173;43.164;27.786;2023-05-25T04:08:33;100406.03;;;16.84;83.21
63088;BME280;49173;43.164;27.786;2023-05-25T04:10:59;100401.38;;;16.86;83.13
63088;BME280;49173;43.164;27.786;2023-05-25T04:13:24;100408.25;;;16.90;83.92
63088;BME280;49173;43.164;27.786;2023-05-25T04:15:50;100399.88;;;17.04;84.73
63088;BME280;49173;43.164;27.786;2023-05-25T04:18:16;100397.13;;;17.26;86.24
63088;BME280;49173;43.164;27.786;2023-05-25T04:20:42;100409.91;;;17.47;84.73
63088;BME280;49173;43.164;27.786;2023-05-25T04:23:07;100401.72;;;17.69;82.73
63088;BME280;49173;43.164;27.786;2023-05-25T04:25:33;100409.78;;;17.92;80.68
63088;BME280;49173;43.164;27.786;2023-05-25T04:27:59;100403.25;;;18.15;79.99
63088;BME280;49173;43.164;27.786;2023-05-25T04:30:25;100409.69;;;18.35;78.72
63088;BME280;49173;43.164;27.786;2023-05-25T04:32:50;100414.25;;;18.55;77.66
63088;BME280;49173;43.164;27.786;2023-05-25T04:35:16;100411.53;;;18.76;76.74
63088;BME280;49173;43.164;27.786;2023-05-25T04:37:45;100415.06;;;18.98;75.75
63088;BME280;49173;43.164;27.786;2023-05-25T04:40:12;100416.88;;;19.18;74.82
63088;BME280;49173;43.164;27.786;2023-05-25T04:42:41;100427.50;;;19.40;74.21
63088;BME280;49173;43.164;27.786;2023-05-25T04:45:08;100421.28;;;19.59;73.11
63088;BME280;49173;43.164;27.786;2023-05-25T04:47:35;100419.03;;;19.74;71.62
63088;BME280;49173;43.164;27.786;2023-05-25T04:50:02;100421.03;;;19.91;71.90
63088;BME280;49173;43.164;27.786;2023-05-25T04:52:28;100420.16;;;20.10;72.30
63088;BME280;49173;43.164;27.786;2023-05-25T04:54:54;100416.28;;;20.32;71.24
63088;BME280;49173;43.164;27.786;2023-05-25T04:57:20;100423.72;;;20.49;71.87
63088;BME280;49173;43.164;27.786;2023-05-25T04:59:46;100427.13;;;20.71;71.09
63088;BME280;49173;43.164;27.786;2023-05-25T05:02:12;100431.81;;;20.88;70.92
63088;BME280;49173;43.164;27.786;2023-05-25T05:04:38;100430.84;;;21.07;70.15
63088;BME280;49173;43.164;27.786;2023-05-25T05:07:05;100429.38;;;21.22;69.13
63088;BME280;49173;43.164;27.786;2023-05-25T05:09:32;100437.09;;;21.36;68.45
63088;BME280;49173;43.164;27.786;2023-05-25T05:11:58;100430.47;;;21.39;66.75
63088;BME280;49173;43.164;27.786;2023-05-25T05:14:23;100431.06;;;21.33;67.68
63088;BME280;49173;43.164;27.786;2023-05-25T05:16:49;100437.41;;;21.24;68.16
63088;BME280;49173;43.164;27.786;2023-05-25T05:19:15;100439.31;;;21.13;67.96
63088;BME280;49173;43.164;27.786;2023-05-25T05:21:41;100429.47;;;21.03;68.21
63088;BME280;49173;43.164;27.786;2023-05-25T05:24:07;100424.59;;;20.97;69.37
63088;BME280;49173;43.164;27.786;2023-05-25T05:26:33;100438.66;;;20.92;70.15
63088;BME280;49173;43.164;27.786;2023-05-25T05:28:58;100430.97;;;20.88;70.45
63088;BME280;49173;43.164;27.786;2023-05-25T05:31:24;100436.16;;;20.81;70.95
63088;BME280;49173;43.164;27.786;2023-05-25T05:34:21;100443.19;;;20.74;70.73
63088;BME280;49173;43.164;27.786;2023-05-25T05:36:50;100450.09;;;20.68;71.00
63088;BME280;49173;43.164;27.786;2023-05-25T05:39:22;100449.66;;;20.63;71.39
63088;BME280;49173;43.164;27.786;2023-05-25T05:42:00;100452.72;;;20.60;71.30
63088;BME280;49173;43.164;27.786;2023-05-25T05:44:29;100454.28;;;20.63;71.69
63088;BME280;49173;43.164;27.786;2023-05-25T05:47:11;100454.69;;;20.68;72.14
63088;BME280;49173;43.164;27.786;2023-05-25T05:50:20;100450.53;;;20.73;72.89
63088;BME280;49173;43.164;27.786;2023-05-25T05:53:14;100454.19;;;20.92;73.45
63088;BME280;49173;43.164;27.786;2023-05-25T05:55:46;100469.47;;;21.22;73.66
63088;BME280;49173;43.164;27.786;2023-05-25T05:58:39;100459.47;;;21.40;71.72
63088;BME280;49173;43.164;27.786;2023-05-25T06:01:08;100464.91;;;21.50;70.50
63088;BME280;49173;43.164;27.786;2023-05-25T06:03:53;100465.84;;;21.58;68.50
63088;BME280;49173;43.164;27.786;2023-05-25T06:06:20;100460.31;;;21.68;69.14
63088;BME280;49173;43.164;27.786;2023-05-25T06:08:52;100464.47;;;21.90;70.22
63088;BME280;49173;43.164;27.786;2023-05-25T06:11:20;100455.38;;;22.17;69.05
63088;BME280;49173;43.164;27.786;2023-05-25T06:13:49;100457.78;;;22.38;66.59
63088;BME280;49173;43.164;27.786;2023-05-25T06:16:21;100461.72;;;22.61;65.94
63088;BME280;49173;43.164;27.786;2023-05-25T06:18:51;100456.13;;;22.89;66.54
63088;BME280;49173;43.164;27.786;2023-05-25T06:21:32;100464.81;;;23.10;65.05
63088;BME280;49173;43.164;27.786;2023-05-25T06:24:05;100458.72;;;23.24;63.60
63088;BME280;49173;43.164;27.786;2023-05-25T06:26:32;100451.47;;;23.41;62.70
63088;BME280;49173;43.164;27.786;2023-05-25T06:29:01;100458.03;;;23.56;61.90
63088;BME280;49173;43.164;27.786;2023-05-25T06:31:36;100456.22;;;23.73;63.00
63088;BME280;49173;43.164;27.786;2023-05-25T06:34:03;100465.50;;;23.89;60.91
63088;BME280;49173;43.164;27.786;2023-05-25T06:36:35;100461.78;;;24.06;60.54
63088;BME280;49173;43.164;27.786;2023-05-25T06:39:12;100456.47;;;24.21;58.92
63088;BME280;49173;43.164;27.786;2023-05-25T06:41:49;100459.41;;;24.35;58.04
63088;BME280;49173;43.164;27.786;2023-05-25T06:44:19;100455.13;;;24.49;57.23
63088;BME280;49173;43.164;27.786;2023-05-25T06:46:48;100458.41;;;24.61;57.65
63088;BME280;49173;43.164;27.786;2023-05-25T06:49:18;100448.06;;;24.71;55.53
63088;BME280;49173;43.164;27.786;2023-05-25T06:51:44;100459.38;;;24.84;56.18
63088;BME280;49173;43.164;27.786;2023-05-25T06:54:28;100453.53;;;24.96;54.83
63088;BME280;49173;43.164;27.786;2023-05-25T06:56:54;100453.84;;;25.09;54.73
63088;BME280;49173;43.164;27.786;2023-05-25T06:59:20;100453.66;;;25.18;54.68
63088;BME280;49173;43.164;27.786;2023-05-25T07:01:50;100462.03;;;25.33;55.44
63088;BME280;49173;43.164;27.786;2023-05-25T07:04:16;100453.75;;;25.41;53.64
63088;BME280;49173;43.164;27.786;2023-05-25T07:06:42;100451.00;;;25.41;52.23
63088;BME280;49173;43.164;27.786;2023-05-25T07:09:12;100444.78;;;25.47;53.78
63088;BME280;49173;43.164;27.786;2023-05-25T07:11:39;100461.63;;;25.53;54.53
63088;BME280;49173;43.164;27.786;2023-05-25T07:14:15;100453.72;;;25.50;54.28
63088;BME280;49173;43.164;27.786;2023-05-25T07:16:42;100456.59;;;25.56;55.18
63088;BME280;49173;43.164;27.786;2023-05-25T07:19:16;100443.31;;;25.68;54.35
63088;BME280;49173;43.164;27.786;2023-05-25T07:21:42;100442.91;;;25.79;51.95
63088;BME280;49173;43.164;27.786;2023-05-25T07:24:09;100445.28;;;25.90;52.71
63088;BME280;49173;43.164;27.786;2023-05-25T07:26:38;100443.31;;;25.99;51.93
63088;BME280;49173;43.164;27.786;2023-05-25T07:29:05;100444.13;;;26.08;52.53
63088;BME280;49173;43.164;27.786;2023-05-25T07:31:32;100445.78;;;26.17;51.84
63088;BME280;49173;43.164;27.786;2023-05-25T07:33:58;100439.81;;;26.28;51.72
63088;BME280;49173;43.164;27.786;2023-05-25T07:36:25;100434.94;;;26.38;48.94
63088;BME280;49173;43.164;27.786;2023-05-25T07:38:51;100435.22;;;26.51;49.15
63088;BME280;49173;43.164;27.786;2023-05-25T07:41:18;100438.44;;;26.70;50.27
63088;BME280;49173;43.164;27.786;2023-05-25T07:43:44;100445.53;;;26.87;54.29
63088;BME280;49173;43.164;27.786;2023-05-25T07:46:11;100437.25;;;26.87;53.37
63088;BME280;49173;43.164;27.786;2023-05-25T07:48:40;100441.63;;;26.81;50.81
63088;BME280;49173;43.164;27.786;2023-05-25T07:51:09;100440.56;;;26.82;51.82
63088;BME280;49173;43.164;27.786;2023-05-25T07:53:36;100444.09;;;26.91;52.12
63088;BME280;49173;43.164;27.786;2023-05-25T07:56:02;100450.94;;;26.95;52.65
63088;BME280;49173;43.164;27.786;2023-05-25T07:58:40;100445.72;;;27.00;51.55
63088;BME280;49173;43.164;27.786;2023-05-25T08:01:11;100445.06;;;27.13;51.15
63088;BME280;49173;43.164;27.786;2023-05-25T08:03:48;100441.00;;;27.24;50.81
63088;BME280;49173;43.164;27.786;2023-05-25T08:06:15;100437.84;;;27.27;49.64
63088;BME280;49173;43.164;27.786;2023-05-25T08:08:53;100437.56;;;27.36;50.07
63088;BME280;49173;43.164;27.786;2023-05-25T08:11:26;100441.00;;;27.38;50.00
63088;BME280;49173;43.164;27.786;2023-05-25T08:13:55;100440.25;;;27.30;48.71
63088;BME280;49173;43.164;27.786;2023-05-25T08:16:31;100444.91;;;27.15;49.09
63088;BME280;49173;43.164;27.786;2023-05-25T08:19:00;100442.13;;;27.00;49.65
63088;BME280;49173;43.164;27.786;2023-05-25T08:21:47;100446.94;;;26.83;49.42
63088;BME280;49173;43.164;27.786;2023-05-25T08:24:20;100459.06;;;26.59;52.25
63088;BME280;49173;43.164;27.786;2023-05-25T08:26:47;100455.09;;;26.16;56.59
63088;BME280;49173;43.164;27.786;2023-05-25T08:29:17;100459.56;;;25.86;60.20
63088;BME280;49173;43.164;27.786;2023-05-25T08:31:52;100461.44;;;25.54;62.89
63088;BME280;49173;43.164;27.786;2023-05-25T08:34:18;100447.09;;;25.28;64.99
63088;BME280;49173;43.164;27.786;2023-05-25T08:36:44;100459.72;;;25.06;66.08
63088;BME280;49173;43.164;27.786;2023-05-25T08:39:11;100461.94;;;24.86;67.24
63088;BME280;49173;43.164;27.786;2023-05-25T08:41:43;100466.06;;;24.74;68.92
63088;BME280;49173;43.164;27.786;2023-05-25T08:44:13;100464.06;;;24.68;71.88
63088;BME280;49173;43.164;27.786;2023-05-25T08:46:43;100456.31;;;24.71;75.17
63088;BME280;49173;43.164;27.786;2023-05-25T08:49:20;100445.34;;;24.71;74.52
63088;BME280;49173;43.164;27.786;2023-05-25T08:51:54;100451.19;;;24.68;72.42
63088;BME280;49173;43.164;27.786;2023-05-25T08:54:58;100459.25;;;24.37;66.41
63088;BME280;49173;43.164;27.786;2023-05-25T08:57:51;100467.56;;;23.95;66.41
63088;BME280;49173;43.164;27.786;2023-05-25T09:00:41;100466.16;;;23.74;66.14
63088;BME280;49173;43.164;27.786;2023-05-25T09:03:17;100467.16;;;23.65;68.23
63088;BME280;49173;43.164;27.786;2023-05-25T09:05:47;100465.22;;;23.57;68.59
63088;BME280;49173;43.164;27.786;2023-05-25T09:08:25;100457.47;;;23.53;69.31
63088;BME280;49173;43.164;27.786;2023-05-25T09:10:52;100454.06;;;23.51;70.18
63088;BME280;49173;43.164;27.786;2023-05-25T09:13:20;100457.66;;;23.51;71.45
63088;BME280;49173;43.164;27.786;2023-05-25T09:15:50;100453.75;;;23.54;73.07
63088;BME280;49173;43.164;27.786;2023-05-25T09:18:21;100472.84;;;23.46;69.68
63088;BME280;49173;43.164;27.786;2023-05-25T09:20:47;100480.41;;;23.44;72.82
63088;BME280;49173;43.164;27.786;2023-05-25T09:23:17;100489.28;;;23.46;73.64
63088;BME280;49173;43.164;27.786;2023-05-25T09:25:47;100480.41;;;23.44;73.69
63088;BME280;49173;43.164;27.786;2023-05-25T09:28:26;100479.91;;;23.48;75.08
63088;BME280;49173;43.164;27.786;2023-05-25T09:30:56;100482.13;;;23.53;76.61
63088;BME280;49173;43.164;27.786;2023-05-25T09:33:22;100486.81;;;23.61;77.93
63088;BME280;49173;43.164;27.786;2023-05-25T09:35:57;100484.44;;;23.66;78.20
63088;BME280;49173;43.164;27.786;2023-05-25T09:38:35;100480.69;;;23.75;79.91
63088;BME280;49173;43.164;27.786;2023-05-25T09:41:05;100479.19;;;23.89;80.41
63088;BME280;49173;43.164;27.786;2023-05-25T09:43:35;100467.56;;;24.03;78.72
63088;BME280;49173;43.164;27.786;2023-05-25T09:46:05;100465.88;;;24.10;75.68
63088;BME280;49173;43.164;27.786;2023-05-25T09:48:34;100464.50;;;24.06;73.88
63088;BME280;49173;43.164;27.786;2023-05-25T09:51:08;100467.56;;;24.03;74.06
63088;BME280;49173;43.164;27.786;2023-05-25T09:53:34;100467.56;;;24.03;75.18
63088;BME280;49173;43.164;27.786;2023-05-25T09:56:04;100473.06;;;24.03;75.27
63088;BME280;49173;43.164;27.786;2023-05-25T09:58:30;100473.41;;;24.00;75.72
63088;BME280;49173;43.164;27.786;2023-05-25T10:01:03;100473.22;;;23.93;75.15
63088;BME280;49173;43.164;27.786;2023-05-25T10:03:33;100464.97;;;23.85;72.51
63088;BME280;49173;43.164;27.786;2023-05-25T10:06:02;100458.28;;;23.71;69.44
63088;BME280;49173;43.164;27.786;2023-05-25T10:08:41;100467.63;;;23.61;69.41
63088;BME280;49173;43.164;27.786;2023-05-25T10:11:12;100469.47;;;23.52;69.91
63088;BME280;49173;43.164;27.786;2023-05-25T10:13:43;100468.25;;;23.46;70.53
63088;BME280;49173;43.164;27.786;2023-05-25T10:16:17;100477.47;;;23.45;71.79
63088;BME280;49173;43.164;27.786;2023-05-25T10:19:24;100474.22;;;23.42;71.92
63088;BME280;49173;43.164;27.786;2023-05-25T10:22:07;100469.44;;;23.44;72.54
63088;BME280;49173;43.164;27.786;2023-05-25T10:27:22;100467.75;;;23.51;73.95
63088;BME280;49173;43.164;27.786;2023-05-25T10:29:55;100464.69;;;23.54;72.41
63088;BME280;49173;43.164;27.786;2023-05-25T10:32:23;100474.00;;;23.61;70.62
63088;BME280;49173;43.164;27.786;2023-05-25T10:34:52;100465.47;;;23.72;71.31
63088;BME280;49173;43.164;27.786;2023-05-25T10:37:22;100466.69;;;23.86;70.30
63088;BME280;49173;43.164;27.786;2023-05-25T10:39:51;100462.81;;;24.05;69.59
63088;BME280;49173;43.164;27.786;2023-05-25T10:42:22;100457.84;;;24.25;68.72
63088;BME280;49173;43.164;27.786;2023-05-25T10:45:12;100464.41;;;24.48;72.10
63088;BME280;49173;43.164;27.786;2023-05-25T10:47:45;100464.03;;;24.59;65.86
63088;BME280;49173;43.164;27.786;2023-05-25T10:50:24;100464.03;;;24.59;63.96
63088;BME280;49173;43.164;27.786;2023-05-25T10:53:04;100459.41;;;24.52;62.82
63088;BME280;49173;43.164;27.786;2023-05-25T10:56:04;100468.00;;;24.41;59.95
63088;BME280;49173;43.164;27.786;2023-05-25T10:58:34;100454.41;;;24.23;62.67
63088;BME280;49173;43.164;27.786;2023-05-25T11:01:09;100462.13;;;24.19;63.91
63088;BME280;49173;43.164;27.786;2023-05-25T11:09:29;100456.13;;;24.07;64.11
63088;BME280;49173;43.164;27.786;2023-05-25T11:12:21;100453.19;;;24.09;64.32
63088;BME280;49173;43.164;27.786;2023-05-25T11:15:11;100446.53;;;24.11;64.20
63088;BME280;49173;43.164;27.786;2023-05-25T11:18:00;100444.13;;;24.17;65.09
63088;BME280;49173;43.164;27.786;2023-05-25T11:20:30;100446.34;;;24.21;65.90
63088;BME280;49173;43.164;27.786;2023-05-25T11:23:00;100446.72;;;24.26;63.57
63088;BME280;49173;43.164;27.786;2023-05-25T11:25:46;100447.59;;;24.35;64.28
63088;BME280;49173;43.164;27.786;2023-05-25T11:28:15;100442.97;;;24.44;63.45
63088;BME280;49173;43.164;27.786;2023-05-25T11:30:42;100441.06;;;24.60;62.90
63088;BME280;49173;43.164;27.786;2023-05-25T11:33:12;100436.75;;;24.82;61.90
63088;BME280;49173;43.164;27.786;2023-05-25T11:35:42;100437.22;;;24.94;60.23
63088;BME280;49173;43.164;27.786;2023-05-25T11:38:15;100431.56;;;25.04;58.21
63088;BME280;49173;43.164;27.786;2023-05-25T11:40:43;100430.28;;;25.23;60.91
63088;BME280;49173;43.164;27.786;2023-05-25T11:43:14;100421.28;;;25.37;59.67
63088;BME280;49173;43.164;27.786;2023-05-25T11:45:43;100423.88;;;25.38;58.95
63088;BME280;49173;43.164;27.786;2023-05-25T11:48:16;100424.22;;;25.35;58.62
63088;BME280;49173;43.164;27.786;2023-05-25T11:50:45;100419.63;;;25.28;59.06
63088;BME280;49173;43.164;27.786;2023-05-25T11:53:12;100423.94;;;25.22;59.61
63088;BME280;49173;43.164;27.786;2023-05-25T11:55:40;100422.03;;;25.23;59.77
63088;BME280;49173;43.164;27.786;2023-05-25T11:58:08;100407.50;;;25.14;59.45
63088;BME280;49173;43.164;27.786;2023-05-25T12:00:38;100410.47;;;25.04;59.91
63088;BME280;49173;43.164;27.786;2023-05-25T12:03:04;100411.63;;;25.02;59.90
63088;BME280;49173;43.164;27.786;2023-05-25T12:05:40;100414.91;;;24.97;59.88
63088;BME280;49173;43.164;27.786;2023-05-25T12:08:09;100405.13;;;24.94;61.30
63088;BME280;49173;43.164;27.786;2023-05-25T12:10:51;100405.13;;;24.94;60.92
63088;BME280;49173;43.164;27.786;2023-05-25T12:13:42;100406.34;;;24.92;61.08
63088;BME280;49173;43.164;27.786;2023-05-25T12:16:24;100393.50;;;24.84;61.08
63088;BME280;49173;43.164;27.786;2023-05-25T12:18:52;100398.31;;;24.82;61.13
63088;BME280;49173;43.164;27.786;2023-05-25T12:21:28;100402.09;;;24.81;60.70
63088;BME280;49173;43.164;27.786;2023-05-25T12:24:00;100399.16;;;24.83;61.68
63088;BME280;49173;43.164;27.786;2023-05-25T12:26:48;100391.78;;;24.83;62.34
63088;BME280;49173;43.164;27.786;2023-05-25T12:29:19;100387.81;;;24.86;62.69
63088;BME280;49173;43.164;27.786;2023-05-25T12:32:00;100393.84;;;24.89;63.23
63088;BME280;49173;43.164;27.786;2023-05-25T12:34:29;100399.47;;;24.96;63.37
63088;BME280;49173;43.164;27.786;2023-05-25T12:36:59;100400.16;;;24.98;62.04
63088;BME280;49173;43.164;27.786;2023-05-25T12:39:36;100393.13;;;25.04;62.23
63088;BME280;49173;43.164;27.786;2023-05-25T12:42:12;100402.56;;;25.09;62.20
63088;BME280;49173;43.164;27.786;2023-05-25T12:44:44;100405.13;;;25.11;61.01
63088;BME280;49173;43.164;27.786;2023-05-25T12:47:33;100406.81;;;25.12;60.55
63088;BME280;49173;43.164;27.786;2023-05-25T12:50:13;100414.88;;;25.13;60.45
63088;BME280;49173;43.164;27.786;2023-05-25T12:52:44;100427.75;;;25.13;60.31
63088;BME280;49173;43.164;27.786;2023-05-25T12:55:27;100429.47;;;25.14;59.45
63088;BME280;49173;43.164;27.786;2023-05-25T12:58:05;100447.84;;;25.13;58.06
63088;BME280;49173;43.164;27.786;2023-05-25T13:00:38;100448.34;;;25.17;57.44
63088;BME280;49173;43.164;27.786;2023-05-25T13:03:13;100452.47;;;25.13;58.84
63088;BME280;49173;43.164;27.786;2023-05-25T13:05:45;100459.34;;;25.09;59.88
63088;BME280;49173;43.164;27.786;2023-05-25T13:08:13;100474.81;;;25.10;59.12
63088;BME280;49173;43.164;27.786;2023-05-25T13:10:43;100472.41;;;24.99;58.57
63088;BME280;49173;43.164;27.786;2023-05-25T13:13:13;100464.19;;;24.90;58.17
63088;BME280;49173;43.164;27.786;2023-05-25T13:15:39;100464.38;;;24.81;59.30